Aquebogue, New York
Current Conditions -  °F | °C
As of 1:00 AM on Saturday 20 Dec 2014 (Local Time) from KFOK Reporting Station
Overcast Overcast  
Wind Chill: -4°   Ceiling: 2900
Heat Index:   Visibility: 10mi
Dew Point: -6°   Wind: 7mph
Humidity: 66%   Direction: 340°NNW
Pressure: 30.19"   Gusts: NA
Location:  40.94°N, 72.61°W
Report Text: KFOK 200600Z AUTO 34006KT 10SM OVC029 00/M06 A3019 RMK AO2 T00001056 TSNO
Loading
Personal Weather Stations






























Interactive Weather Map New forecast layout! Learn more

10-Day Weather Forecast

Advertisements
Track Severe Weather on mobile